Time;durP1;ratioP1;P1;durP2;ratioP2;P2;SDS_P1;SDS_P2;PMS_P1;PMS_P2;Temp;Humidity;BMP_temperature;BMP_pressure;BME280_temperature;BME280_humidity;BME280_pressure;Samples;Min_cycle;Max_cycle;Signal;HPM_P1;HPM_P2
2021/10/23 00:00:00;;;;;;;8.73;2.60;;;7.90;97.60;;;;;;5076104;28;20194;-84
2021/10/23 00:02:26;;;;;;;9.13;3.10;;;8.00;97.60;;;;;;5058970;28;20619;-84
2021/10/23 00:04:51;;;;;;;5.53;2.53;;;8.00;97.40;;;;;;5075586;28;20190;-83
2021/10/23 00:07:17;;;;;;;6.57;2.40;;;8.00;97.60;;;;;;5042390;28;20201;-83
2021/10/23 00:09:43;;;;;;;4.63;2.13;;;8.00;97.70;;;;;;5075585;28;20627;-83
2021/10/23 00:12:09;;;;;;;5.70;2.60;;;8.00;97.90;;;;;;5058954;28;20224;-83
2021/10/23 00:14:34;;;;;;;6.80;2.43;;;7.90;98.10;;;;;;5094120;28;20190;-83
2021/10/23 00:17:00;;;;;;;4.37;2.37;;;7.90;98.20;;;;;;5094214;28;20231;-83
2021/10/23 00:19:25;;;;;;;6.30;2.60;;;8.00;98.50;;;;;;5075741;28;20586;-83
2021/10/23 00:21:51;;;;;;;6.23;2.10;;;8.00;98.80;;;;;;5059169;28;20182;-83
2021/10/23 00:24:17;;;;;;;9.03;2.43;;;8.00;98.90;;;;;;5076127;28;20259;-83
2021/10/23 00:26:43;;;;;;;7.03;2.43;;;8.10;99.90;;;;;;5058890;28;20611;-83
2021/10/23 00:29:08;;;;;;;6.80;2.40;;;8.10;99.90;;;;;;5059149;28;20182;-83
2021/10/23 00:31:34;;;;;;;7.80;2.43;;;8.10;99.90;;;;;;5095293;28;20182;-84
2021/10/23 00:33:59;;;;;;;4.90;2.37;;;8.10;99.90;;;;;;5060277;28;20638;-84
2021/10/23 00:36:25;;;;;;;4.10;1.73;;;8.10;99.90;;;;;;5040164;28;20668;-84
2021/10/23 00:38:51;;;;;;;3.10;1.63;;;8.10;99.90;;;;;;5073135;28;20256;-84
2021/10/23 00:41:16;;;;;;;4.80;1.70;;;8.00;99.90;;;;;;5056827;28;20214;-84
2021/10/23 00:43:44;;;;;;;3.67;1.60;;;8.00;99.90;;;;;;5056459;28;20211;-84
2021/10/23 00:46:15;;;;;;;3.80;1.50;;;7.90;99.90;;;;;;5056825;28;20198;-83
2021/10/23 00:48:42;;;;;;;1.83;1.30;;;7.90;99.90;;;;;;5056070;28;20214;-83
2021/10/23 00:51:13;;;;;;;4.63;1.57;;;7.80;99.90;;;;;;5074238;28;20269;-83
2021/10/23 00:53:40;;;;;;;5.10;2.03;;;7.80;99.90;;;;;;5072700;28;20686;-83
2021/10/23 00:56:06;;;;;;;2.73;1.80;;;7.80;99.90;;;;;;5074364;28;20221;-83
2021/10/23 00:58:32;;;;;;;3.03;1.80;;;7.70;99.90;;;;;;5073195;28;20571;-83
2021/10/23 01:00:57;;;;;;;3.03;1.70;;;7.70;99.90;;;;;;5074372;28;20194;-83
2021/10/23 01:03:23;;;;;;;6.97;2.80;;;7.50;99.90;;;;;;5056443;28;20210;-83
2021/10/23 01:05:49;;;;;;;4.00;1.87;;;7.50;99.90;;;;;;5056653;28;20187;-84
2021/10/23 01:08:15;;;;;;;12.03;2.30;;;7.50;99.90;;;;;;5075348;28;20199;-83
2021/10/23 01:10:41;;;;;;;4.87;2.20;;;7.50;99.90;;;;;;5073668;28;20205;-83
2021/10/23 01:13:06;;;;;;;5.90;2.10;;;7.50;99.90;;;;;;5073505;28;20175;-84
2021/10/23 01:15:33;;;;;;;4.67;1.70;;;7.50;99.90;;;;;;5073755;28;20530;-83
2021/10/23 01:18:02;;;;;;;2.83;1.90;;;7.50;99.90;;;;;;5072539;28;20680;-83
2021/10/23 01:20:28;;;;;;;4.87;1.50;;;7.50;99.90;;;;;;5056774;28;20175;-83
2021/10/23 01:22:54;;;;;;;4.70;2.03;;;7.50;99.90;;;;;;5073043;28;20184;-83
2021/10/23 01:25:23;;;;;;;3.40;1.57;;;7.50;99.90;;;;;;5056212;28;20184;-83
2021/10/23 01:27:52;;;;;;;1.93;1.40;;;7.60;99.90;;;;;;5073776;28;20266;-83
2021/10/23 01:30:18;;;;;;;3.30;1.53;;;7.60;99.90;;;;;;5074263;28;20172;-83
2021/10/23 01:32:44;;;;;;;4.77;1.87;;;7.60;99.90;;;;;;5072677;28;20175;-82
2021/10/23 01:35:10;;;;;;;2.70;1.50;;;7.60;99.90;;;;;;5073162;28;20754;-82
2021/10/23 01:37:44;;;;;;;4.80;1.87;;;7.50;99.90;;;;;;5055190;28;20621;-81
2021/10/23 01:40:13;;;;;;;3.83;1.53;;;7.60;99.90;;;;;;5072992;28;20526;-82
2021/10/23 01:42:40;;;;;;;3.43;1.63;;;7.50;99.90;;;;;;5073552;28;20176;-83
2021/10/23 01:45:07;;;;;;;2.37;1.33;;;7.50;99.90;;;;;;5072117;28;20207;-83
2021/10/23 01:47:33;;;;;;;1.80;1.50;;;7.50;99.90;;;;;;5072344;28;20206;-83
2021/10/23 01:49:59;;;;;;;2.13;1.60;;;7.50;99.90;;;;;;5073855;28;20624;-84
2021/10/23 01:52:26;;;;;;;7.07;1.60;;;7.50;99.90;;;;;;5055906;28;20179;-84
2021/10/23 01:54:51;;;;;;;94.43;12.40;;;7.50;99.90;;;;;;5072515;28;20266;-83
2021/10/23 01:57:17;;;;;;;2.20;1.07;;;7.50;99.90;;;;;;5072971;28;20274;-84
2021/10/23 01:59:43;;;;;;;0.43;0.43;;;7.50;99.90;;;;;;5072709;28;20225;-84
2021/10/23 02:02:09;;;;;;;0.50;0.50;;;7.50;99.90;;;;;;5072334;28;20180;-83
2021/10/23 02:04:34;;;;;;;0.30;0.30;;;7.60;99.90;;;;;;5072874;28;20262;-84
2021/10/23 02:07:00;;;;;;;1.90;1.00;;;7.50;99.90;;;;;;5071970;28;20647;-83
2021/10/23 02:09:26;;;;;;;14.50;3.10;;;7.60;99.90;;;;;;5038597;28;20631;-83
2021/10/23 02:11:51;;;;;;;5.47;2.03;;;7.50;99.90;;;;;;5073729;28;20186;-84
2021/10/23 02:14:17;;;;;;;5.07;2.03;;;7.50;99.90;;;;;;5075758;28;20171;-83
2021/10/23 02:16:43;;;;;;;4.03;1.90;;;7.40;99.90;;;;;;5076172;28;20187;-83
2021/10/23 02:19:08;;;;;;;3.60;1.87;;;7.40;99.90;;;;;;5042447;28;20209;-83
2021/10/23 02:21:34;;;;;;;6.93;1.77;;;7.30;99.90;;;;;;5075970;28;20241;-83
2021/10/23 02:24:00;;;;;;;3.10;2.03;;;7.40;99.90;;;;;;5075511;28;20234;-86
2021/10/23 02:26:25;;;;;;;5.00;2.10;;;7.30;99.90;;;;;;5075415;28;20655;-86
2021/10/23 02:28:51;;;;;;;2.80;2.03;;;7.30;99.90;;;;;;5042024;28;20286;-83
2021/10/23 02:31:17;;;;;;;2.37;2.00;;;7.30;99.90;;;;;;5075299;28;20190;-83
2021/10/23 02:33:42;;;;;;;4.60;2.20;;;7.30;99.90;;;;;;5076806;28;20202;-83
2021/10/23 02:36:08;;;;;;;3.03;2.00;;;7.20;99.90;;;;;;5074998;28;20276;-84
2021/10/23 02:38:34;;;;;;;2.93;2.00;;;7.20;99.90;;;;;;5075186;28;20654;-83
2021/10/23 02:41:00;;;;;;;2.37;1.77;;;7.20;99.90;;;;;;5058434;28;20183;-84
2021/10/23 02:43:26;;;;;;;5.70;1.77;;;7.20;99.90;;;;;;5058946;28;20179;-83
2021/10/23 02:45:52;;;;;;;5.63;2.00;;;7.00;99.90;;;;;;5058517;28;20210;-84
2021/10/23 02:48:18;;;;;;;2.67;1.80;;;7.10;99.90;;;;;;5075906;28;20194;-83
2021/10/23 02:50:45;;;;;;;3.97;2.03;;;7.00;99.90;;;;;;5076630;28;20167;-83
2021/10/23 02:53:11;;;;;;;3.00;1.80;;;7.00;99.90;;;;;;5086508;28;20268;-83
2021/10/23 02:55:36;;;;;;;4.70;1.67;;;6.90;99.90;;;;;;5090402;28;20183;-83
2021/10/23 02:58:02;;;;;;;5.40;2.20;;;6.90;99.90;;;;;;5075480;28;20565;-83
2021/10/23 03:00:28;;;;;;;2.63;1.80;;;6.80;99.90;;;;;;5058913;28;20203;-83
2021/10/23 03:02:55;;;;;;;5.03;2.23;;;6.70;99.90;;;;;;5074849;28;20183;-82
2021/10/23 03:05:21;;;;;;;2.60;1.73;;;6.70;99.90;;;;;;5075103;28;20240;-82
2021/10/23 03:07:47;;;;;;;3.90;1.60;;;6.70;99.90;;;;;;5076351;28;20202;-82
2021/10/23 03:10:13;;;;;;;4.13;2.00;;;6.60;99.90;;;;;;5074478;28;20179;-83
2021/10/23 03:12:39;;;;;;;3.47;1.50;;;6.60;99.90;;;;;;5058338;28;20179;-84
2021/10/23 03:15:05;;;;;;;3.90;1.60;;;6.60;99.90;;;;;;5076011;28;20595;-83
2021/10/23 03:17:31;;;;;;;4.57;2.03;;;6.60;99.90;;;;;;5074664;28;20179;-83
2021/10/23 03:19:57;;;;;;;7.97;1.90;;;6.60;99.90;;;;;;5074845;28;20202;-83
2021/10/23 03:22:23;;;;;;;3.57;1.73;;;6.60;99.90;;;;;;5057571;28;20621;-84
2021/10/23 03:24:49;;;;;;;3.30;1.93;;;6.50;99.90;;;;;;5073765;28;20190;-83
2021/10/23 03:27:17;;;;;;;3.57;2.40;;;6.50;99.90;;;;;;5073996;28;20179;-84
2021/10/23 03:29:44;;;;;;;4.30;1.70;;;6.50;99.90;;;;;;5075504;28;20205;-85
2021/10/23 03:32:10;;;;;;;1.60;1.50;;;6.50;99.90;;;;;;5074188;28;20193;-83
2021/10/23 03:34:36;;;;;;;7.40;2.43;;;6.50;99.90;;;;;;5074409;28;20179;-83
2021/10/23 03:37:02;;;;;;;3.57;2.10;;;6.50;99.90;;;;;;5057320;28;20237;-83
2021/10/23 03:39:28;;;;;;;2.17;1.97;;;6.40;99.90;;;;;;5073989;28;20687;-83
2021/10/23 03:41:53;;;;;;;4.47;1.97;;;6.40;99.90;;;;;;5057388;28;20547;-83
2021/10/23 03:44:19;;;;;;;4.37;2.30;;;6.30;99.90;;;;;;5040976;28;20194;-83
2021/10/23 03:46:45;;;;;;;2.80;2.10;;;6.40;99.90;;;;;;5074282;28;20299;-83
2021/10/23 03:49:10;;;;;;;5.03;1.80;;;6.30;99.90;;;;;;5073881;28;20183;-83
2021/10/23 03:51:36;;;;;;;2.53;2.33;;;6.20;99.90;;;;;;5074667;28;20548;-84
2021/10/23 03:54:02;;;;;;;1.97;1.73;;;6.20;99.90;;;;;;5073841;28;20224;-84
2021/10/23 03:56:28;;;;;;;3.30;2.40;;;6.10;99.90;;;;;;5073278;28;20630;-84
2021/10/23 03:58:54;;;;;;;2.13;1.90;;;6.20;99.90;;;;;;5073896;28;20213;-84
2021/10/23 04:01:19;;;;;;;5.87;2.37;;;6.20;99.90;;;;;;5074828;28;20191;-83
2021/10/23 04:03:45;;;;;;;3.93;2.60;;;6.20;99.90;;;;;;5074064;28;20179;-84
2021/10/23 04:06:11;;;;;;;3.07;2.23;;;6.20;99.90;;;;;;5073879;28;20183;-83
2021/10/23 04:08:36;;;;;;;2.17;1.97;;;6.20;99.90;;;;;;5057248;28;20269;-83
2021/10/23 04:11:02;;;;;;;3.17;1.87;;;6.10;99.90;;;;;;5072202;28;20520;-83
2021/10/23 04:13:28;;;;;;;3.07;2.03;;;6.00;99.90;;;;;;5055116;28;20182;-83
2021/10/23 04:15:53;;;;;;;2.30;1.80;;;5.90;99.90;;;;;;5071883;28;20187;-82
2021/10/23 04:18:19;;;;;;;6.13;2.27;;;6.00;99.90;;;;;;5038244;28;20609;-83
2021/10/23 04:20:44;;;;;;;4.60;2.10;;;6.00;99.90;;;;;;5071942;28;20207;-83
2021/10/23 04:23:10;;;;;;;4.23;2.50;;;5.90;99.90;;;;;;5055258;28;20251;-83
2021/10/23 04:25:36;;;;;;;7.13;1.70;;;6.00;99.90;;;;;;5073573;28;20218;-83
2021/10/23 04:28:02;;;;;;;3.37;2.00;;;6.00;99.90;;;;;;5072827;28;20643;-83
2021/10/23 04:30:27;;;;;;;3.20;1.97;;;6.00;99.90;;;;;;5072896;28;20205;-83
2021/10/23 04:32:53;;;;;;;3.10;1.70;;;6.00;99.90;;;;;;5055822;28;20179;-83
2021/10/23 04:35:19;;;;;;;3.07;1.73;;;6.10;99.90;;;;;;5073772;28;20199;-84
2021/10/23 04:37:44;;;;;;;5.80;1.90;;;6.20;99.90;;;;;;5055107;28;20242;-83
2021/10/23 04:40:10;;;;;;;3.93;1.50;;;6.20;99.90;;;;;;5056352;28;20599;-84
2021/10/23 04:42:36;;;;;;;5.20;1.90;;;6.20;99.90;;;;;;5056017;28;20707;-83
2021/10/23 04:45:03;;;;;;;3.23;2.00;;;6.30;99.90;;;;;;5073202;28;20213;-83
2021/10/23 04:47:28;;;;;;;6.33;2.67;;;6.20;99.90;;;;;;5055909;28;20547;-83
2021/10/23 04:49:54;;;;;;;5.37;2.10;;;6.20;99.90;;;;;;5055873;28;20179;-83
2021/10/23 04:52:19;;;;;;;5.53;1.87;;;6.30;99.90;;;;;;5073456;28;20748;-83
2021/10/23 04:54:45;;;;;;;1.70;1.60;;;6.30;99.90;;;;;;5074016;28;20635;-83
2021/10/23 04:57:12;;;;;;;4.20;2.10;;;6.30;99.90;;;;;;5055794;28;20270;-83
2021/10/23 04:59:37;;;;;;;2.27;1.67;;;6.40;99.90;;;;;;5072396;28;20213;-83
2021/10/23 05:02:03;;;;;;;3.77;2.00;;;6.30;99.90;;;;;;5073651;28;20186;-82
2021/10/23 05:04:29;;;;;;;1.73;1.40;;;6.20;99.90;;;;;;5074267;28;20254;-83
2021/10/23 05:06:54;;;;;;;3.33;1.80;;;6.20;99.90;;;;;;5056191;28;20194;-83
2021/10/23 05:09:21;;;;;;;8.50;2.00;;;6.30;99.90;;;;;;5056108;28;20224;-83
2021/10/23 05:11:47;;;;;;;4.73;1.80;;;6.30;99.90;;;;;;5074039;28;20632;-83
2021/10/23 05:14:12;;;;;;;2.47;1.87;;;6.20;99.90;;;;;;5056234;28;20282;-84
2021/10/23 05:16:38;;;;;;;3.30;1.80;;;6.20;99.90;;;;;;5072948;28;20262;-83
2021/10/23 05:19:04;;;;;;;3.33;2.07;;;6.20;99.90;;;;;;5055660;28;20298;-83
2021/10/23 05:21:29;;;;;;;5.23;2.77;;;6.20;99.90;;;;;;5073551;28;20519;-83
2021/10/23 05:23:57;;;;;;;3.37;2.30;;;6.10;99.90;;;;;;5055559;28;20190;-83
2021/10/23 05:26:23;;;;;;;6.60;2.57;;;6.10;99.90;;;;;;5072210;28;20171;-83
2021/10/23 05:28:48;;;;;;;3.33;2.23;;;6.00;99.90;;;;;;5073351;28;20190;-84
2021/10/23 05:31:14;;;;;;;7.77;2.53;;;6.10;99.90;;;;;;5055273;28;20183;-83
2021/10/23 05:33:39;;;;;;;11.93;2.47;;;6.10;99.90;;;;;;5073135;28;20369;-84
2021/10/23 05:36:05;;;;;;;5.50;2.27;;;6.20;99.90;;;;;;5071787;28;20234;-84
2021/10/23 05:38:31;;;;;;;3.37;2.10;;;6.20;99.90;;;;;;5054620;28;20211;-83
2021/10/23 05:40:57;;;;;;;2.70;2.10;;;6.20;99.90;;;;;;5071863;28;20180;-83
2021/10/23 05:43:22;;;;;;;2.60;1.90;;;6.20;99.90;;;;;;5072816;28;20312;-83
2021/10/23 05:45:48;;;;;;;4.97;2.40;;;6.20;99.90;;;;;;5071455;28;20214;-83
2021/10/23 05:48:14;;;;;;;3.67;1.77;;;6.20;99.90;;;;;;5040682;28;20214;-83
2021/10/23 05:50:41;;;;;;;5.40;2.17;;;6.10;99.90;;;;;;5075115;28;20198;-83
2021/10/23 05:53:06;;;;;;;3.97;2.30;;;6.10;99.90;;;;;;5076998;28;20179;-82
2021/10/23 05:55:32;;;;;;;5.63;2.47;;;6.10;99.90;;;;;;5077022;28;20533;-83
2021/10/23 05:57:58;;;;;;;3.90;2.23;;;6.10;99.90;;;;;;5059345;28;20246;-82
2021/10/23 06:00:24;;;;;;;5.73;2.00;;;6.10;99.90;;;;;;5075923;28;20633;-83
2021/10/23 06:02:50;;;;;;;4.73;2.20;;;6.20;99.90;;;;;;5059020;28;20179;-83
2021/10/23 06:05:15;;;;;;;5.67;2.13;;;6.20;99.90;;;;;;5058746;28;20640;-82
2021/10/23 06:07:42;;;;;;;7.73;2.43;;;6.10;99.90;;;;;;5058277;28;20632;-83
2021/10/23 06:10:10;;;;;;;4.80;2.27;;;6.10;99.90;;;;;;5076292;28;20171;-82
2021/10/23 06:12:36;;;;;;;8.87;2.43;;;6.10;99.90;;;;;;5075031;28;20232;-83
2021/10/23 06:15:03;;;;;;;4.07;1.70;;;6.20;99.90;;;;;;5076452;28;20171;-83
2021/10/23 06:17:29;;;;;;;3.57;1.80;;;6.20;99.90;;;;;;5076212;28;20244;-83
2021/10/23 06:19:54;;;;;;;2.80;1.57;;;6.20;99.90;;;;;;5074887;28;20215;-83
2021/10/23 06:22:20;;;;;;;7.67;1.83;;;6.40;99.90;;;;;;5074555;28;20190;-83
2021/10/23 06:24:46;;;;;;;8.10;1.83;;;6.30;99.90;;;;;;5074535;28;20225;-82
2021/10/23 06:27:11;;;;;;;7.57;2.23;;;6.30;99.90;;;;;;5075042;28;20206;-83
2021/10/23 06:29:37;;;;;;;6.73;1.93;;;6.40;99.90;;;;;;5075113;28;20211;-84
2021/10/23 06:32:03;;;;;;;4.20;1.97;;;6.30;99.90;;;;;;5074673;28;20509;-83
2021/10/23 06:34:29;;;;;;;1.40;1.23;;;6.40;99.90;;;;;;5079054;28;20691;-83
2021/10/23 06:36:55;;;;;;;5.37;1.77;;;6.40;99.90;;;;;;5078109;28;20258;-83
2021/10/23 06:39:21;;;;;;;3.73;1.90;;;6.50;99.90;;;;;;5075601;28;20206;-82
2021/10/23 06:41:47;;;;;;;6.23;1.63;;;6.40;99.90;;;;;;5073043;28;20183;-86
2021/10/23 06:44:12;;;;;;;3.60;1.70;;;6.50;99.90;;;;;;5040933;28;20183;-84
2021/10/23 06:46:39;;;;;;;8.23;2.03;;;6.50;99.90;;;;;;5075265;28;20183;-83
2021/10/23 06:49:07;;;;;;;11.13;1.93;;;6.50;99.90;;;;;;5074916;28;20190;-84
2021/10/23 06:51:33;;;;;;;5.43;2.07;;;6.60;99.90;;;;;;5075241;28;20229;-86
2021/10/23 06:54:00;;;;;;;3.10;2.03;;;6.60;99.90;;;;;;5073994;28;20258;-83
2021/10/23 06:56:27;;;;;;;2.37;1.87;;;6.70;99.90;;;;;;5057165;28;20179;-82
2021/10/23 06:58:54;;;;;;;5.80;1.87;;;6.80;99.90;;;;;;5074173;28;20191;-83
2021/10/23 07:01:21;;;;;;;4.63;1.93;;;6.80;99.90;;;;;;5074572;28;20179;-83
2021/10/23 07:03:47;;;;;;;7.57;1.97;;;6.80;99.90;;;;;;5073870;28;20191;-86
2021/10/23 07:06:13;;;;;;;3.83;2.20;;;7.00;99.90;;;;;;5057933;28;20179;-84
2021/10/23 07:08:39;;;;;;;3.03;1.50;;;6.90;99.90;;;;;;5073812;28;20183;-83
2021/10/23 07:11:05;;;;;;;4.97;1.30;;;6.90;99.90;;;;;;5073577;28;20249;-84
2021/10/23 07:13:31;;;;;;;5.57;1.63;;;7.00;99.90;;;;;;5073291;28;20194;-84
2021/10/23 07:15:56;;;;;;;4.77;1.73;;;7.10;99.90;;;;;;5057002;28;20209;-84
2021/10/23 07:18:22;;;;;;;4.77;1.90;;;7.10;99.90;;;;;;5073796;28;20214;-84
2021/10/23 07:20:48;;;;;;;11.03;1.93;;;7.20;99.90;;;;;;5056243;28;20647;-83
2021/10/23 07:23:13;;;;;;;6.67;2.13;;;7.20;99.90;;;;;;5072838;28;20217;-83
2021/10/23 07:25:40;;;;;;;5.77;1.93;;;7.20;99.90;;;;;;5039600;28;20259;-82
2021/10/23 07:28:06;;;;;;;6.87;1.90;;;7.30;99.90;;;;;;5056725;28;20628;-83
2021/10/23 07:30:31;;;;;;;9.20;1.77;;;7.40;99.90;;;;;;5072874;28;20316;-83
2021/10/23 07:32:57;;;;;;;4.20;2.07;;;7.40;99.90;;;;;;5072097;28;20214;-83
2021/10/23 07:35:23;;;;;;;5.43;1.90;;;7.40;99.90;;;;;;5056728;28;20636;-82
2021/10/23 07:37:48;;;;;;;3.93;1.80;;;7.40;99.90;;;;;;5095076;28;20183;-82
2021/10/23 07:40:15;;;;;;;2.10;1.70;;;7.50;99.90;;;;;;5099714;28;20186;-81
2021/10/23 07:42:41;;;;;;;5.37;1.93;;;7.60;99.90;;;;;;5080544;28;20198;-84
2021/10/23 07:45:10;;;;;;;2.50;1.40;;;7.40;99.90;;;;;;5076563;28;20266;-84
2021/10/23 07:47:37;;;;;;;2.50;1.87;;;7.50;99.90;;;;;;5093217;28;20190;-85
2021/10/23 07:50:03;;;;;;;8.47;1.87;;;7.60;99.90;;;;;;5075566;28;20185;-84
2021/10/23 07:52:29;;;;;;;4.30;1.60;;;7.60;99.90;;;;;;5075743;28;20205;-84
2021/10/23 07:54:55;;;;;;;4.60;1.77;;;7.60;99.90;;;;;;5075489;28;20631;-83
2021/10/23 07:57:20;;;;;;;9.27;2.67;;;7.50;99.90;;;;;;5058912;28;20179;-83
2021/10/23 07:59:46;;;;;;;5.93;1.70;;;7.50;99.90;;;;;;5075409;28;20216;-84
2021/10/23 08:02:12;;;;;;;5.30;1.83;;;7.50;99.90;;;;;;5077217;28;20182;-83
2021/10/23 08:04:38;;;;;;;4.70;1.40;;;7.60;99.90;;;;;;5077067;28;20249;-84
2021/10/23 08:07:05;;;;;;;7.33;2.63;;;6.30;99.90;;;;;;5060382;28;20190;-83
2021/10/23 08:09:35;;;;;;;4.90;1.97;;;7.70;99.90;;;;;;5076679;28;20218;-82
2021/10/23 08:12:01;;;;;;;2.77;1.43;;;7.80;99.90;;;;;;5076875;28;20193;-82
2021/10/23 08:14:27;;;;;;;4.97;1.83;;;7.70;99.90;;;;;;5076568;28;20209;-82
2021/10/23 08:16:53;;;;;;;6.87;2.00;;;7.70;99.90;;;;;;5094511;28;20688;-82
2021/10/23 08:19:20;;;;;;;6.60;1.60;;;7.80;99.90;;;;;;5059731;28;20693;-83
2021/10/23 08:21:46;;;;;;;4.57;1.70;;;7.80;99.90;;;;;;5076324;28;20194;-81
2021/10/23 08:24:12;;;;;;;4.47;1.70;;;7.80;99.90;;;;;;5076627;28;20596;-83
2021/10/23 08:26:38;;;;;;;5.70;1.80;;;7.80;99.90;;;;;;5094896;28;20261;-83
2021/10/23 08:29:03;;;;;;;6.77;1.90;;;7.80;99.90;;;;;;5059937;28;20186;-82
2021/10/23 08:31:30;;;;;;;7.43;2.10;;;8.00;99.90;;;;;;5060150;28;20182;-83
2021/10/23 08:33:58;;;;;;;6.57;2.37;;;8.10;99.90;;;;;;5076039;28;20221;-83
2021/10/23 08:36:24;;;;;;;4.87;2.00;;;8.10;99.90;;;;;;5077186;28;20234;-83
2021/10/23 08:38:50;;;;;;;7.30;2.30;;;8.10;99.90;;;;;;5077166;28;20205;-82
2021/10/23 08:41:18;;;;;;;6.70;2.10;;;8.00;99.90;;;;;;5095130;28;20347;-83
2021/10/23 08:43:45;;;;;;;9.00;2.00;;;8.10;99.90;;;;;;5094429;28;20631;-84
2021/10/23 08:46:15;;;;;;;7.57;2.10;;;8.10;99.90;;;;;;5094304;28;20179;-83
2021/10/23 08:48:46;;;;;;;5.87;1.90;;;8.30;99.90;;;;;;5076326;28;20265;-84
2021/10/23 08:51:12;;;;;;;8.03;1.87;;;8.40;99.90;;;;;;5075757;28;20181;-81
2021/10/23 08:53:41;;;;;;;6.37;1.90;;;8.40;99.90;;;;;;5076166;28;20182;-82
2021/10/23 08:56:08;;;;;;;6.20;1.90;;;8.20;99.90;;;;;;5076355;28;20185;-85
2021/10/23 08:58:34;;;;;;;7.40;2.00;;;8.20;99.90;;;;;;5076534;28;20230;-83
2021/10/23 09:01:01;;;;;;;7.80;2.00;;;8.20;99.90;;;;;;5059884;28;20197;-82
2021/10/23 09:03:27;;;;;;;6.47;2.13;;;8.20;99.90;;;;;;5094192;28;20650;-84
2021/10/23 09:05:53;;;;;;;12.60;2.17;;;8.20;99.90;;;;;;5043883;28;20182;-86
2021/10/23 09:08:19;;;;;;;6.83;2.13;;;8.10;99.90;;;;;;5094017;28;20654;-85
2021/10/23 09:10:51;;;;;;;6.83;2.63;;;8.10;99.90;;;;;;5059109;28;20210;-86
2021/10/23 09:13:31;;;;;;;8.30;1.83;;;8.10;99.90;;;;;;5076080;28;20178;-84
2021/10/23 09:15:58;;;;;;;7.80;1.83;;;8.00;99.90;;;;;;5076328;28;20731;-84
2021/10/23 09:18:44;;;;;;;8.50;2.40;;;8.00;99.90;;;;;;5075101;28;20209;-84
2021/10/23 09:21:20;;;;;;;3.10;1.63;;;8.00;99.90;;;;;;5075304;28;20265;-84
2021/10/23 09:23:48;;;;;;;7.13;2.27;;;7.90;99.90;;;;;;5078498;28;20182;-86
2021/10/23 09:26:34;;;;;;;12.83;2.90;;;7.90;99.90;;;;;;5097899;28;20193;-83
2021/10/23 09:29:24;;;;;;;8.90;2.97;;;7.90;99.90;;;;;;5078849;28;20198;-84
2021/10/23 09:31:55;;;;;;;6.03;2.37;;;7.90;99.90;;;;;;5098178;28;20547;-84
2021/10/23 09:34:24;;;;;;;5.20;2.23;;;7.90;99.90;;;;;;5098137;28;20178;-83
2021/10/23 09:36:55;;;;;;;9.27;3.27;;;8.10;99.90;;;;;;5080414;28;20363;-84
2021/10/23 09:39:34;;;;;;;5.40;2.07;;;8.10;99.90;;;;;;5096266;28;20190;-84
2021/10/23 09:42:16;;;;;;;9.50;2.97;;;8.30;99.90;;;;;;5062462;28;20245;-83
2021/10/23 09:45:00;;;;;;;6.07;2.33;;;8.20;99.90;;;;;;5079205;28;20531;-84
2021/10/23 09:47:46;;;;;;;5.83;1.97;;;8.20;99.90;;;;;;5096887;28;20186;-84
2021/10/23 09:50:18;;;;;;;6.37;2.63;;;8.10;99.90;;;;;;5096842;28;20634;-85
2021/10/23 09:53:02;;;;;;;10.30;3.10;;;8.10;99.90;;;;;;5079000;28;20312;-85
2021/10/23 09:55:31;;;;;;;8.30;2.70;;;8.10;99.90;;;;;;5095877;28;20175;-83
2021/10/23 09:58:23;;;;;;;8.83;2.70;;;8.10;99.90;;;;;;5077032;28;20183;-85
2021/10/23 10:00:51;;;;;;;6.67;2.83;;;8.20;99.90;;;;;;5075182;28;20195;-84
2021/10/23 10:03:17;;;;;;;6.17;2.80;;;8.10;99.90;;;;;;5061403;28;20190;-82
2021/10/23 10:05:43;;;;;;;9.90;2.90;;;8.00;99.90;;;;;;5096859;28;20179;-84
2021/10/23 10:08:14;;;;;;;8.17;3.23;;;7.90;99.90;;;;;;5078716;28;20631;-84
2021/10/23 10:10:42;;;;;;;8.83;2.70;;;7.90;99.90;;;;;;5078421;28;20267;-84
2021/10/23 10:13:10;;;;;;;7.80;2.57;;;7.90;99.90;;;;;;5079086;28;20192;-85
2021/10/23 10:15:37;;;;;;;9.93;3.50;;;7.90;99.90;;;;;;5065249;28;20182;-83
2021/10/23 10:18:04;;;;;;;6.90;2.70;;;7.90;99.90;;;;;;5079947;28;20182;-83
2021/10/23 10:20:32;;;;;;;10.70;2.83;;;7.70;99.90;;;;;;5061665;28;20625;-84
2021/10/23 10:22:58;;;;;;;9.37;2.87;;;7.70;99.90;;;;;;5078081;28;20538;-85
2021/10/23 10:25:25;;;;;;;7.00;3.23;;;7.70;99.90;;;;;;5076780;28;20179;-84
2021/10/23 10:27:53;;;;;;;7.40;2.77;;;7.70;99.90;;;;;;5060272;28;20217;-84
2021/10/23 10:30:35;;;;;;;10.17;3.67;;;7.80;99.90;;;;;;5076438;28;20186;-83
2021/10/23 10:33:23;;;;;;;10.10;3.93;;;8.10;99.90;;;;;;5076949;28;20273;-85
2021/10/23 10:39:42;;;;;;;12.93;2.80;;;8.10;99.90;;;;;;5051834;28;20220;-85
2021/10/23 10:45:24;;;;;;;6.23;3.07;;;8.10;99.90;;;;;;5079703;28;20236;-84
2021/10/23 10:48:18;;;;;;;8.83;3.80;;;8.10;99.90;;;;;;5094794;28;20273;-84
2021/10/23 10:50:48;;;;;;;9.53;3.37;;;8.10;99.90;;;;;;5076299;28;20610;-84
2021/10/23 10:53:26;;;;;;;12.57;3.17;;;8.10;99.90;;;;;;5076075;28;20273;-85
2021/10/23 10:55:56;;;;;;;7.37;2.87;;;8.10;99.90;;;;;;5095670;28;20154;-84
2021/10/23 10:58:41;;;;;;;9.50;3.93;;;8.10;99.90;;;;;;5077084;28;20214;-84
2021/10/23 11:01:24;;;;;;;11.57;3.70;;;8.10;99.90;;;;;;5095900;28;20174;-90
2021/10/23 11:03:56;;;;;;;8.77;3.37;;;8.10;99.90;;;;;;5078332;28;20170;-86
2021/10/23 11:06:36;;;;;;;6.93;3.33;;;8.00;99.90;;;;;;5077772;28;20182;-85
2021/10/23 11:09:10;;;;;;;8.47;3.10;;;8.10;99.90;;;;;;5095872;28;20173;-83
2021/10/23 11:11:49;;;;;;;9.60;3.80;;;8.90;99.90;;;;;;5095950;28;20177;-83
2021/10/23 11:14:24;;;;;;;12.43;3.77;;;8.20;99.90;;;;;;5095938;28;20163;-84
2021/10/23 11:17:02;;;;;;;12.00;3.80;;;8.20;99.90;;;;;;5095772;28;20185;-83
2021/10/23 11:19:38;;;;;;;6.60;3.20;;;8.20;99.90;;;;;;5077646;28;20205;-84
2021/10/23 11:22:23;;;;;;;10.90;3.37;;;8.20;99.90;;;;;;5077485;28;20182;-84
2021/10/23 11:25:05;;;;;;;10.50;3.40;;;8.10;99.90;;;;;;5077718;28;20178;-85
2021/10/23 11:27:49;;;;;;;13.20;3.77;;;8.10;99.90;;;;;;5076435;28;20174;-84
2021/10/23 11:30:26;;;;;;;7.67;3.70;;;8.10;99.90;;;;;;5076944;28;20269;-84
2021/10/23 11:32:57;;;;;;;10.43;3.40;;;8.10;99.90;;;;;;5059709;28;20646;-86
2021/10/23 11:35:46;;;;;;;15.33;4.67;;;8.10;99.90;;;;;;5075631;28;20178;-84
2021/10/23 11:38:24;;;;;;;11.33;3.60;;;8.10;99.90;;;;;;5075674;28;20221;-85
2021/10/23 11:41:08;;;;;;;11.20;3.17;;;8.00;99.90;;;;;;5093740;28;20190;-85
2021/10/23 11:43:38;;;;;;;5.90;2.97;;;8.00;99.90;;;;;;5074897;28;20299;-85
2021/10/23 11:46:06;;;;;;;8.43;3.40;;;8.10;99.90;;;;;;5075919;28;20178;-85
2021/10/23 11:48:32;;;;;;;10.70;3.63;;;7.90;99.90;;;;;;5075306;28;20191;-85
2021/10/23 11:50:57;;;;;;;9.80;3.50;;;7.80;99.90;;;;;;5075267;28;20182;-85
2021/10/23 11:53:23;;;;;;;4.73;2.83;;;7.80;99.90;;;;;;5058596;28;20277;-85
2021/10/23 11:56:01;;;;;;;11.87;4.37;;;7.70;99.90;;;;;;5075607;28;20273;-82
2021/10/23 11:58:29;;;;;;;10.17;4.23;;;7.60;99.90;;;;;;5075304;28;20237;-85
2021/10/23 12:01:04;;;;;;;11.63;4.00;;;7.50;99.90;;;;;;5059014;28;20197;-85
2021/10/23 12:03:41;;;;;;;14.07;4.93;;;7.40;99.90;;;;;;5075533;28;20185;-84
2021/10/23 12:06:27;;;;;;;12.97;4.13;;;7.40;99.90;;;;;;5075628;28;20193;-84
2021/10/23 12:09:14;;;;;;;8.67;3.40;;;7.40;99.90;;;;;;5075221;28;20182;-84
2021/10/23 12:11:40;;;;;;;6.27;3.70;;;7.40;99.90;;;;;;5093694;28;20190;-85
2021/10/23 12:14:08;;;;;;;11.87;3.90;;;7.40;99.90;;;;;;5075491;28;20190;-85
2021/10/23 12:16:44;;;;;;;8.17;4.30;;;7.40;99.90;;;;;;5093278;28;20174;-84
2021/10/23 12:19:14;;;;;;;18.77;5.03;;;7.50;99.90;;;;;;5092915;28;20237;-85
2021/10/23 12:22:00;;;;;;;12.03;4.40;;;7.50;99.90;;;;;;5074331;28;20653;-86
2021/10/23 12:24:40;;;;;;;14.10;4.50;;;7.50;99.90;;;;;;5078446;28;20194;-84
2021/10/23 12:27:22;;;;;;;14.10;4.37;;;7.50;99.90;;;;;;5074688;28;20182;-84
2021/10/23 12:30:04;;;;;;;10.57;3.60;;;7.60;99.90;;;;;;5074730;28;20189;-86
2021/10/23 12:32:43;;;;;;;13.53;4.73;;;7.60;99.90;;;;;;5092744;28;20219;-84
2021/10/23 12:35:11;;;;;;;15.47;4.40;;;7.60;99.90;;;;;;5092688;28;20216;-84
2021/10/23 12:37:44;;;;;;;10.37;5.10;;;7.60;99.90;;;;;;5074019;28;20226;-85
2021/10/23 12:40:19;;;;;;;12.53;5.00;;;7.70;99.90;;;;;;5092251;28;20252;-83
2021/10/23 12:42:47;;;;;;;10.97;5.23;;;7.70;99.90;;;;;;5092789;28;20635;-84
2021/10/23 12:45:16;;;;;;;11.53;5.20;;;7.70;99.90;;;;;;5074584;28;20200;-84
2021/10/23 12:47:42;;;;;;;19.43;4.67;;;7.80;99.90;;;;;;5074470;28;20178;-84
2021/10/23 12:50:09;;;;;;;16.07;5.50;;;7.90;99.90;;;;;;5074914;28;20236;-85
2021/10/23 12:52:36;;;;;;;13.10;4.33;;;7.90;99.90;;;;;;5074737;28;20588;-84
2021/10/23 12:55:04;;;;;;;9.20;3.93;;;8.00;99.90;;;;;;5075231;28;20190;-84
2021/10/23 12:57:30;;;;;;;11.77;4.53;;;8.00;99.90;;;;;;5073477;28;20277;-83
2021/10/23 12:59:57;;;;;;;10.93;3.57;;;8.00;99.90;;;;;;5057436;28;20753;-85
2021/10/23 13:02:23;;;;;;;9.50;3.80;;;;;;;;;;5091740;28;20228;-83
2021/10/23 13:04:49;;;;;;;15.87;3.70;;;7.90;99.90;;;;;;5074137;28;20179;-84
2021/10/23 13:07:17;;;;;;;7.87;4.13;;;8.00;99.90;;;;;;5040670;28;20591;-83